KH78

Offshore

Offshore, Louisiana, USA
METAR KH78 211500Z 08005KT 12SM SCT040 26/22 A3000 RMK SEAS 1-2
Observed Flight Rules
May-21 @ 15:00 UTC (19 hours ago) Visual Flight Rules
Wind Visibility Clouds
80° at 5 knots 12 miles
  • Scattered at 4,000' AGL
Temperatures Readings
Current 26°C / 79°F
Dewpoint 22°C / 72°F
Humidity 79%
Altimeter 30" Hg
Pressure 1016 hPa
Elevation 43
METAR KH78 211500Z 08005KT 12SM SCT040 26/22 A3000 RMK SEAS 1-2
Observed Flight Rules
May-21 @ 15:00 UTC
(19 hours ago)
VFR
Wind Visibility
80° at 5 knots 12 miles
Clouds
  • Scattered at 4,000' AGL
Temperature Dewpoint
26°C / 79°F 22°C / 72°F
Humidity Altimeter Pressure
79% 30" Hg 1016 hPa